DAUU/OGX METAR and TAF weather

Enter ICAO airport designator
Station Type Date Time Source
DAUU METAR 2018/09/19 11:00 UTC NOAA

DAUU 191100Z 00000KT 9999 FEW040 SCT233 36/10 Q1018


Station Type Date Time Source
DAUU Decoded METAR 2018/09/19 11:00 UTC NOAA

Ouargla, Algeria (DAUU) 31-55N 005-24E 141M
Sep 19, 2018 - 07:00 AM EDT / 2018.09.19 1100 UTC
Wind: Calm:0
Visibility: greater than 7 mile(s):0
Sky conditions: partly cloudy
Temperature: 96 F (36 C)
Dew Point: 50 F (10 C)
Relative Humidity: 20%
Pressure (altimeter): 30.06 in. Hg (1018 hPa)
ob: DAUU 191100Z 00000KT 9999 FEW040 SCT233 36/10 Q1018
cycle: 11

Station Type Date Time Source
DAUU TAF 2017/11/09 18:03 UTC NOAA

TAF DAUU 091700Z 0918/1009 34012KT 9999 FEW040 SCT100 PROB40
TEMPO 0918/0924 34015G25KT 5000 -TSRA FEW036CB


Example: see airport list